createdAt,value
2023-03-26T00:01:07.817Z,8.70
2023-03-26T00:03:35.691Z,8.70
2023-03-26T00:06:08.230Z,8.70
2023-03-26T00:08:36.127Z,8.70
2023-03-26T00:11:05.135Z,8.60
2023-03-26T00:13:32.214Z,8.60
2023-03-26T00:15:59.107Z,8.60
2023-03-26T00:18:30.563Z,8.60
2023-03-26T00:20:58.741Z,8.60
2023-03-26T00:23:27.041Z,8.60
2023-03-26T00:25:54.586Z,8.60
2023-03-26T00:28:23.132Z,8.60
2023-03-26T00:30:50.589Z,8.60
2023-03-26T00:33:17.581Z,8.70
2023-03-26T00:35:47.026Z,8.60
2023-03-26T00:38:14.794Z,8.60
2023-03-26T00:40:47.876Z,8.70
2023-03-26T00:43:21.087Z,8.70
2023-03-26T00:45:48.194Z,8.70
2023-03-26T00:48:16.304Z,8.70
2023-03-26T00:50:45.485Z,8.70
2023-03-26T00:53:13.703Z,8.70
2023-03-26T00:55:41.883Z,8.70
2023-03-26T00:58:12.705Z,8.70
2023-03-26T01:00:48.347Z,8.70
2023-03-26T01:03:27.735Z,8.60
2023-03-26T01:06:04.567Z,8.60
2023-03-26T01:08:39.681Z,8.70
2023-03-26T01:11:16.932Z,8.60
2023-03-26T01:13:52.669Z,8.60
2023-03-26T01:16:27.257Z,8.60
2023-03-26T01:18:54.611Z,8.50
2023-03-26T01:21:28.496Z,8.50
2023-03-26T01:23:57.316Z,8.50
2023-03-26T01:26:45.117Z,8.50
2023-03-26T01:29:39.180Z,8.50
2023-03-26T01:32:05.711Z,8.60
2023-03-26T01:35:07.305Z,8.60
2023-03-26T01:38:15.316Z,8.50
2023-03-26T01:41:00.519Z,8.50
2023-03-26T01:43:47.980Z,8.40
2023-03-26T01:46:16.343Z,8.50
2023-03-26T01:48:44.801Z,8.40
2023-03-26T01:51:13.089Z,8.40
2023-03-26T01:53:44.954Z,8.30
2023-03-26T01:56:23.483Z,8.30
2023-03-26T01:59:07.268Z,8.40
2023-03-26T02:01:55.699Z,8.40
2023-03-26T02:04:28.482Z,8.40
2023-03-26T02:07:23.543Z,8.40
2023-03-26T02:09:55.234Z,8.40
2023-03-26T02:12:23.813Z,8.40
2023-03-26T02:14:52.488Z,8.30
2023-03-26T02:17:24.071Z,8.40
2023-03-26T02:19:51.299Z,8.40
2023-03-26T02:22:18.006Z,8.40
2023-03-26T02:24:45.486Z,8.40
2023-03-26T02:27:13.377Z,8.40
2023-03-26T02:29:40.928Z,8.30
2023-03-26T02:32:12.959Z,8.30
2023-03-26T02:34:42.970Z,8.30
2023-03-26T02:37:10.284Z,8.30
2023-03-26T02:39:37.091Z,8.30
2023-03-26T02:42:03.767Z,8.30
2023-03-26T02:44:30.399Z,8.20
2023-03-26T02:46:57.038Z,8.30
2023-03-26T02:49:23.648Z,8.30
2023-03-26T02:51:50.802Z,8.40
2023-03-26T02:54:18.158Z,8.30
2023-03-26T02:56:44.758Z,8.40
2023-03-26T02:59:11.379Z,8.40
2023-03-26T03:01:42.788Z,8.40
2023-03-26T03:04:11.233Z,8.50
2023-03-26T03:06:38.583Z,8.40
2023-03-26T03:09:06.699Z,8.50
2023-03-26T03:11:33.292Z,8.40
2023-03-26T03:13:59.954Z,8.40
2023-03-26T03:16:27.115Z,8.40
2023-03-26T03:18:57.858Z,8.40
2023-03-26T03:21:29.025Z,8.40
2023-03-26T03:23:56.220Z,8.40
2023-03-26T03:26:29.543Z,8.40
2023-03-26T03:28:57.611Z,8.40
2023-03-26T03:31:25.417Z,8.40
2023-03-26T03:33:52.614Z,8.50
2023-03-26T03:36:27.284Z,8.60
2023-03-26T03:38:53.982Z,8.60
2023-03-26T03:41:20.599Z,8.60
2023-03-26T03:43:47.170Z,8.60
2023-03-26T03:46:13.799Z,8.60
2023-03-26T03:48:40.930Z,8.70
2023-03-26T03:51:07.706Z,8.70
2023-03-26T03:53:36.994Z,8.70
2023-03-26T03:56:04.436Z,8.70
2023-03-26T03:58:31.123Z,8.70
2023-03-26T04:01:04.532Z,8.60
2023-03-26T04:03:34.032Z,8.70
2023-03-26T04:06:01.295Z,8.60
2023-03-26T04:08:27.967Z,8.60
2023-03-26T04:10:54.591Z,8.40
2023-03-26T04:13:21.484Z,8.40
2023-03-26T04:15:48.200Z,8.50
2023-03-26T04:18:14.887Z,8.50
2023-03-26T04:20:46.675Z,8.50
2023-03-26T04:23:18.393Z,8.50
2023-03-26T04:25:49.581Z,8.60
2023-03-26T04:28:28.288Z,8.60
2023-03-26T04:30:56.972Z,8.60
2023-03-26T04:33:24.834Z,8.60
2023-03-26T04:35:51.621Z,8.60
2023-03-26T04:38:18.484Z,8.70
2023-03-26T04:40:48.440Z,8.70
2023-03-26T04:43:17.874Z,8.70
2023-03-26T04:45:48.398Z,8.70
2023-03-26T04:48:15.051Z,8.60
2023-03-26T04:50:42.927Z,8.70
2023-03-26T04:53:14.874Z,8.60
2023-03-26T04:55:51.103Z,8.70
2023-03-26T04:58:17.959Z,8.60
2023-03-26T05:00:44.630Z,8.60
2023-03-26T05:03:12.079Z,8.60
2023-03-26T05:05:39.371Z,8.50
2023-03-26T05:08:06.501Z,8.60
2023-03-26T05:10:33.141Z,8.50
2023-03-26T05:12:59.803Z,8.60
2023-03-26T05:15:26.497Z,8.60
2023-03-26T05:17:55.292Z,8.70
2023-03-26T05:20:30.107Z,8.60
2023-03-26T05:22:56.886Z,8.60
2023-03-26T05:25:23.618Z,8.60
2023-03-26T05:27:50.377Z,8.60
2023-03-26T05:30:19.795Z,8.60
2023-03-26T05:32:48.742Z,8.60
2023-03-26T05:35:19.788Z,8.60
2023-03-26T05:37:47.895Z,8.60
2023-03-26T05:40:17.094Z,8.60
2023-03-26T05:42:44.315Z,8.70
2023-03-26T05:45:13.491Z,8.70
2023-03-26T05:47:40.232Z,8.70
2023-03-26T05:50:08.210Z,8.70
2023-03-26T05:52:34.779Z,8.70
2023-03-26T05:55:01.357Z,8.60
2023-03-26T05:57:30.845Z,8.60
2023-03-26T05:59:57.498Z,8.60
2023-03-26T06:02:24.226Z,8.60
2023-03-26T06:04:51.032Z,8.60
2023-03-26T06:07:19.586Z,8.60
2023-03-26T06:09:46.374Z,8.70
2023-03-26T06:12:13.061Z,8.70
2023-03-26T06:14:39.748Z,8.70
2023-03-26T06:17:06.346Z,8.80
2023-03-26T06:19:32.973Z,8.80
2023-03-26T06:21:59.734Z,8.80
2023-03-26T06:24:26.411Z,8.70
2023-03-26T06:26:53.230Z,8.80
2023-03-26T06:29:20.173Z,8.80
2023-03-26T06:31:47.153Z,8.70
2023-03-26T06:34:13.842Z,8.80
2023-03-26T06:36:40.489Z,8.80
2023-03-26T06:39:07.366Z,8.80
2023-03-26T06:41:35.464Z,8.80
2023-03-26T06:44:02.243Z,8.90
2023-03-26T06:46:29.006Z,8.80
2023-03-26T06:48:55.634Z,8.90
2023-03-26T06:51:22.284Z,9.00
2023-03-26T06:53:48.859Z,8.90
2023-03-26T06:56:15.474Z,8.90
2023-03-26T06:58:42.095Z,8.90
2023-03-26T07:01:08.819Z,8.80
2023-03-26T07:03:35.599Z,8.90
2023-03-26T07:06:02.296Z,8.90
2023-03-26T07:08:30.741Z,8.90
2023-03-26T07:10:57.628Z,8.90
2023-03-26T07:13:24.393Z,8.90
2023-03-26T07:15:51.050Z,8.90
2023-03-26T07:18:17.684Z,8.90
2023-03-26T07:20:45.970Z,8.80
2023-03-26T07:23:15.442Z,8.80
2023-03-26T07:25:42.324Z,8.80
2023-03-26T07:28:18.113Z,8.80
2023-03-26T07:31:06.518Z,8.90
2023-03-26T07:33:39.222Z,9.00
2023-03-26T07:36:26.476Z,9.00
2023-03-26T07:39:23.693Z,8.90
2023-03-26T07:41:58.944Z,8.90
2023-03-26T07:44:40.839Z,9.10
2023-03-26T07:47:34.928Z,9.20
2023-03-26T07:50:02.445Z,9.20
2023-03-26T07:52:29.438Z,9.20
2023-03-26T07:54:56.601Z,9.20
2023-03-26T07:57:34.848Z,9.20
2023-03-26T08:00:12.422Z,9.20
2023-03-26T08:03:15.723Z,9.10
2023-03-26T08:06:05.750Z,9.10
2023-03-26T08:08:56.138Z,9.00
2023-03-26T08:11:46.095Z,9.00
2023-03-26T08:14:54.044Z,9.20
2023-03-26T08:17:49.783Z,9.10
2023-03-26T08:20:34.438Z,9.40
2023-03-26T08:23:23.368Z,9.40
2023-03-26T08:26:02.448Z,9.30
2023-03-26T08:28:29.118Z,9.30
2023-03-26T08:30:56.270Z,9.30
2023-03-26T08:33:27.006Z,9.30
2023-03-26T08:35:53.734Z,9.30
2023-03-26T08:38:21.108Z,9.10
2023-03-26T08:41:12.559Z,9.30
2023-03-26T08:43:45.167Z,9.40
2023-03-26T08:46:17.696Z,9.40
2023-03-26T08:49:12.765Z,9.30
2023-03-26T08:51:47.996Z,9.40
2023-03-26T08:54:36.005Z,9.40
2023-03-26T08:57:19.785Z,9.40
2023-03-26T08:59:46.338Z,9.50
2023-03-26T09:02:42.069Z,9.50
2023-03-26T09:05:26.863Z,9.50
2023-03-26T09:07:59.396Z,9.30
2023-03-26T09:11:10.593Z,9.30
2023-03-26T09:13:49.576Z,9.40
2023-03-26T09:16:35.188Z,9.30
2023-03-26T09:19:20.395Z,9.30
2023-03-26T09:22:08.181Z,9.20
2023-03-26T09:24:54.373Z,9.10
2023-03-26T09:27:36.166Z,9.00
2023-03-26T09:30:30.168Z,9.10
2023-03-26T09:32:56.736Z,9.10
2023-03-26T09:35:52.592Z,9.20
2023-03-26T09:38:45.752Z,9.20
2023-03-26T09:41:38.080Z,9.20
2023-03-26T09:44:14.314Z,9.20
2023-03-26T09:46:59.387Z,9.20
2023-03-26T09:49:34.194Z,9.20
2023-03-26T09:52:06.617Z,9.20
2023-03-26T09:54:39.237Z,9.10
2023-03-26T09:57:34.555Z,9.10
2023-03-26T10:00:28.476Z,9.10
2023-03-26T10:03:18.645Z,9.10
2023-03-26T10:05:45.400Z,9.20
2023-03-26T10:08:39.603Z,9.30
2023-03-26T10:11:35.288Z,9.40
2023-03-26T10:14:32.340Z,9.50
2023-03-26T10:17:05.147Z,9.60
2023-03-26T10:19:56.287Z,9.70
2023-03-26T10:22:46.936Z,9.70
2023-03-26T10:25:31.457Z,9.80
2023-03-26T10:28:13.564Z,9.80
2023-03-26T10:31:01.815Z,10.00
2023-03-26T10:33:50.103Z,9.70
2023-03-26T10:36:26.789Z,9.80
2023-03-26T10:39:36.344Z,10.00
2023-03-26T10:42:14.320Z,10.20
2023-03-26T10:45:11.779Z,10.60
2023-03-26T10:47:38.401Z,10.70
2023-03-26T10:50:29.779Z,10.60
2023-03-26T10:53:22.531Z,10.60
2023-03-26T10:55:57.137Z,10.30
2023-03-26T10:58:26.245Z,10.30
2023-03-26T11:00:56.345Z,10.40
2023-03-26T11:03:33.259Z,10.60
2023-03-26T11:06:18.222Z,10.60
2023-03-26T11:08:56.985Z,10.50
2023-03-26T11:11:49.839Z,10.30
2023-03-26T11:14:34.726Z,10.20
2023-03-26T11:17:40.334Z,10.50
2023-03-26T11:20:31.168Z,10.60
2023-03-26T11:23:07.516Z,10.70
2023-03-26T11:26:13.962Z,10.90
2023-03-26T11:29:32.199Z,11.00
2023-03-26T11:32:12.336Z,10.90
2023-03-26T11:34:48.833Z,10.70
2023-03-26T11:37:37.537Z,11.00
2023-03-26T11:40:15.399Z,11.00
2023-03-26T11:42:43.537Z,11.10
2023-03-26T11:45:19.094Z,11.10
2023-03-26T11:47:50.520Z,11.00
2023-03-26T11:50:23.853Z,11.20
2023-03-26T11:52:50.788Z,11.20
2023-03-26T11:55:17.878Z,11.00
2023-03-26T11:57:55.036Z,11.00
2023-03-26T12:00:27.355Z,10.90
2023-03-26T12:02:58.893Z,11.10
2023-03-26T12:05:31.374Z,11.10
2023-03-26T12:07:58.098Z,11.10
2023-03-26T12:10:27.931Z,11.10
2023-03-26T12:13:01.652Z,11.20
2023-03-26T12:15:30.911Z,11.40
2023-03-26T12:18:17.286Z,11.50
2023-03-26T12:20:44.976Z,11.00
2023-03-26T12:23:50.048Z,10.50
2023-03-26T12:26:20.638Z,10.50
2023-03-26T12:28:49.653Z,10.60
2023-03-26T12:31:18.901Z,10.80
2023-03-26T12:34:07.805Z,11.00
2023-03-26T12:36:35.729Z,11.10
2023-03-26T12:40:07.821Z,10.90
2023-03-26T12:44:46.327Z,11.00
2023-03-26T12:45:14.331Z,10.90
2023-03-26T12:48:00.200Z,10.90
2023-03-26T12:50:42.678Z,10.70
2023-03-26T12:53:31.127Z,10.50
2023-03-26T12:56:21.388Z,10.80
2023-03-26T12:59:00.368Z,10.60
2023-03-26T13:01:47.262Z,10.10
2023-03-26T13:04:30.002Z,10.30
2023-03-26T13:07:10.683Z,10.20
2023-03-26T13:09:46.489Z,10.30
2023-03-26T13:12:43.857Z,10.10
2023-03-26T13:15:34.737Z,10.10
2023-03-26T13:18:22.180Z,10.50
2023-03-26T13:21:05.020Z,10.70
2023-03-26T13:23:47.227Z,11.00
2023-03-26T13:26:35.192Z,10.80
2023-03-26T13:29:18.245Z,10.70
2023-03-26T13:31:53.409Z,10.80
2023-03-26T13:34:38.029Z,10.60
2023-03-26T13:37:16.568Z,10.70
2023-03-26T13:40:10.314Z,10.80
2023-03-26T13:43:06.458Z,10.50
2023-03-26T13:45:39.228Z,10.50
2023-03-26T13:48:12.798Z,10.60
2023-03-26T13:50:42.706Z,10.50
2023-03-26T13:53:16.268Z,10.30
2023-03-26T13:55:50.657Z,10.60
2023-03-26T13:58:21.301Z,10.60
2023-03-26T14:01:09.228Z,10.40
2023-03-26T14:03:54.098Z,10.70
2023-03-26T14:06:43.372Z,11.10
2023-03-26T14:09:36.149Z,11.20
2023-03-26T14:12:21.177Z,10.80
2023-03-26T14:14:57.386Z,11.10
2023-03-26T14:18:09.057Z,10.90
2023-03-26T14:21:01.346Z,10.80
2023-03-26T14:23:56.073Z,10.50
2023-03-26T14:26:50.142Z,10.50
2023-03-26T14:29:28.430Z,10.40
2023-03-26T14:32:24.313Z,10.30
2023-03-26T14:35:25.845Z,10.30
2023-03-26T14:38:10.215Z,10.30
2023-03-26T14:40:47.810Z,10.20
2023-03-26T14:43:52.202Z,10.10
2023-03-26T14:46:35.514Z,10.10
2023-03-26T14:49:41.224Z,10.10
2023-03-26T14:52:18.276Z,10.10
2023-03-26T14:54:49.459Z,10.10
2023-03-26T14:57:52.212Z,10.10
2023-03-26T15:00:34.514Z,10.00
2023-03-26T15:03:13.137Z,10.10
2023-03-26T15:05:46.457Z,10.20
2023-03-26T15:08:54.890Z,10.20
2023-03-26T15:11:51.822Z,10.00
2023-03-26T15:14:40.875Z,10.00
2023-03-26T15:17:32.324Z,9.80
2023-03-26T15:20:31.750Z,9.80
2023-03-26T15:22:58.295Z,9.90
2023-03-26T15:25:43.601Z,10.00
2023-03-26T15:28:25.530Z,9.90
2023-03-26T15:30:55.592Z,9.80
2023-03-26T15:33:48.628Z,9.80
2023-03-26T15:36:50.823Z,9.60
2023-03-26T15:39:27.566Z,9.70
2023-03-26T15:42:14.928Z,9.70
2023-03-26T15:44:55.074Z,9.60
2023-03-26T15:47:50.625Z,9.50
2023-03-26T15:50:33.171Z,9.70
2023-03-26T15:53:18.460Z,9.60
2023-03-26T15:55:57.237Z,9.60
2023-03-26T15:58:34.409Z,9.60
2023-03-26T16:01:22.446Z,9.40
2023-03-26T16:04:08.981Z,9.40
2023-03-26T16:06:55.226Z,9.30
2023-03-26T16:09:24.788Z,9.30
2023-03-26T16:11:59.123Z,9.40
2023-03-26T16:14:35.071Z,9.40
2023-03-26T16:17:06.315Z,9.30
2023-03-26T16:19:45.845Z,9.20
2023-03-26T16:22:35.366Z,9.40
2023-03-26T16:25:27.796Z,9.20
2023-03-26T16:28:11.423Z,9.20
2023-03-26T16:30:39.049Z,9.10
2023-03-26T16:33:36.194Z,9.00
2023-03-26T16:36:20.084Z,9.10
2023-03-26T16:39:11.493Z,8.90
2023-03-26T16:41:50.182Z,9.10
2023-03-26T16:44:34.724Z,9.00
2023-03-26T16:47:20.103Z,9.30
2023-03-26T16:50:08.736Z,9.20
2023-03-26T16:52:42.573Z,9.10
2023-03-26T16:55:31.375Z,9.20
2023-03-26T16:58:13.073Z,9.20
2023-03-26T17:00:47.962Z,9.10
2023-03-26T17:03:37.556Z,9.10
2023-03-26T17:06:06.321Z,9.10
2023-03-26T17:08:56.844Z,9.20
2023-03-26T17:11:31.302Z,9.00
2023-03-26T17:14:16.469Z,9.00
2023-03-26T17:16:49.106Z,9.00
2023-03-26T17:19:45.940Z,9.00
2023-03-26T17:22:37.025Z,9.20
2023-03-26T17:25:28.312Z,9.00
2023-03-26T17:28:20.232Z,8.90
2023-03-26T17:31:16.328Z,8.80
2023-03-26T17:33:43.277Z,8.90
2023-03-26T17:36:12.705Z,8.70
2023-03-26T17:38:39.425Z,8.40
2023-03-26T17:41:11.322Z,8.60
2023-03-26T17:43:58.221Z,8.60
2023-03-26T17:46:39.276Z,8.60
2023-03-26T17:49:18.367Z,8.50
2023-03-26T17:51:55.228Z,8.70
2023-03-26T17:54:44.256Z,8.50
2023-03-26T17:57:23.949Z,8.40
2023-03-26T17:59:56.592Z,8.40
2023-03-26T18:02:36.785Z,8.40
2023-03-26T18:05:08.048Z,8.50
2023-03-26T18:08:01.863Z,8.50
2023-03-26T18:10:38.759Z,8.40
2023-03-26T18:13:20.669Z,8.40
2023-03-26T18:15:50.398Z,8.40
2023-03-26T18:18:34.092Z,8.20
2023-03-26T18:21:04.455Z,8.40
2023-03-26T18:23:45.904Z,8.30
2023-03-26T18:26:16.269Z,8.20
2023-03-26T18:28:52.826Z,7.90
2023-03-26T18:31:26.221Z,8.00
2023-03-26T18:33:59.088Z,8.10
2023-03-26T18:36:27.631Z,8.00
2023-03-26T18:39:00.577Z,8.10
2023-03-26T18:41:45.757Z,8.00
2023-03-26T18:44:16.478Z,7.90
2023-03-26T18:46:44.042Z,8.00
2023-03-26T18:49:13.532Z,8.00
2023-03-26T18:51:56.253Z,7.90
2023-03-26T18:54:27.566Z,7.90
2023-03-26T18:56:54.958Z,7.90
2023-03-26T18:59:35.047Z,7.90
2023-03-26T19:02:11.033Z,7.80
2023-03-26T19:04:38.498Z,7.70
2023-03-26T19:07:11.627Z,7.70
2023-03-26T19:09:39.013Z,7.60
2023-03-26T19:12:09.171Z,7.50
2023-03-26T19:15:09.333Z,7.50
2023-03-26T19:17:44.503Z,7.60
2023-03-26T19:20:19.657Z,7.60
2023-03-26T19:22:47.642Z,7.60
2023-03-26T19:25:31.294Z,7.40
2023-03-26T19:27:59.140Z,7.50
2023-03-26T19:30:34.616Z,7.70
2023-03-26T19:33:16.358Z,7.60
2023-03-26T19:35:45.933Z,7.60
2023-03-26T19:38:23.078Z,7.40
2023-03-26T19:41:00.072Z,7.60
2023-03-26T19:43:27.060Z,7.60
2023-03-26T19:46:00.335Z,7.60
2023-03-26T19:48:45.759Z,7.50
2023-03-26T19:51:20.369Z,7.40
2023-03-26T19:53:52.841Z,7.50
2023-03-26T19:56:20.776Z,7.40
2023-03-26T19:58:48.438Z,7.30
2023-03-26T20:01:34.964Z,7.40
2023-03-26T20:04:06.154Z,7.20
2023-03-26T20:06:43.142Z,7.10
2023-03-26T20:09:22.431Z,7.20
2023-03-26T20:11:50.206Z,7.10
2023-03-26T20:14:25.716Z,7.20
2023-03-26T20:16:52.789Z,7.20
2023-03-26T20:19:20.448Z,7.10
2023-03-26T20:21:47.079Z,7.10
2023-03-26T20:24:18.452Z,7.00
2023-03-26T20:26:46.457Z,7.10
2023-03-26T20:29:14.877Z,7.10
2023-03-26T20:31:42.239Z,6.90
2023-03-26T20:34:16.576Z,6.80
2023-03-26T20:36:43.942Z,6.80
2023-03-26T20:39:10.727Z,7.00
2023-03-26T20:41:47.074Z,7.00
2023-03-26T20:44:16.572Z,7.00
2023-03-26T20:46:44.373Z,6.90
2023-03-26T20:49:11.509Z,7.10
2023-03-26T20:51:38.800Z,6.80
2023-03-26T20:54:08.830Z,6.80
2023-03-26T20:56:37.452Z,6.80
2023-03-26T20:59:11.149Z,6.90
2023-03-26T21:01:38.680Z,6.70
2023-03-26T21:04:06.366Z,6.90
2023-03-26T21:06:33.004Z,7.00
2023-03-26T21:09:00.049Z,6.90
2023-03-26T21:11:52.481Z,6.80
2023-03-26T21:14:24.442Z,6.80
2023-03-26T21:16:51.721Z,6.80
2023-03-26T21:19:19.005Z,6.70
2023-03-26T21:22:07.467Z,6.70
2023-03-26T21:24:57.068Z,6.60
2023-03-26T21:27:33.701Z,6.60
2023-03-26T21:30:00.614Z,6.60
2023-03-26T21:32:27.870Z,6.60
2023-03-26T21:34:58.958Z,7.00
2023-03-26T21:37:26.793Z,6.60
2023-03-26T21:39:53.829Z,6.70
2023-03-26T21:42:20.787Z,6.60
2023-03-26T21:44:47.778Z,6.80
2023-03-26T21:47:14.826Z,6.90
2023-03-26T21:49:41.802Z,6.90
2023-03-26T21:52:14.587Z,6.60
2023-03-26T21:54:42.936Z,6.60
2023-03-26T21:57:42.607Z,6.50
2023-03-26T22:00:23.671Z,6.50
2023-03-26T22:03:11.389Z,6.20
2023-03-26T22:05:52.571Z,6.20
2023-03-26T22:08:30.483Z,6.30
2023-03-26T22:10:57.689Z,6.20
2023-03-26T22:13:25.325Z,5.90
2023-03-26T22:15:52.011Z,5.90
2023-03-26T22:18:21.551Z,5.70
2023-03-26T22:20:49.340Z,5.70
2023-03-26T22:23:19.743Z,5.60
2023-03-26T22:25:46.508Z,5.60
2023-03-26T22:28:13.639Z,5.60
2023-03-26T22:30:40.520Z,5.50
2023-03-26T22:33:11.877Z,5.50
2023-03-26T22:35:41.027Z,5.50
2023-03-26T22:38:09.545Z,5.40
2023-03-26T22:40:36.173Z,5.30
2023-03-26T22:43:03.074Z,5.30
2023-03-26T22:45:30.057Z,5.30
2023-03-26T22:48:02.995Z,5.20
2023-03-26T22:50:31.012Z,5.20
2023-03-26T22:52:57.627Z,5.20
2023-03-26T22:55:28.407Z,5.20
2023-03-26T22:57:55.800Z,5.20
2023-03-26T23:00:22.553Z,5.10
2023-03-26T23:02:49.848Z,5.10
2023-03-26T23:05:19.837Z,5.10
2023-03-26T23:07:46.478Z,5.10
2023-03-26T23:10:14.247Z,5.10
2023-03-26T23:12:41.445Z,5.10
2023-03-26T23:15:09.520Z,5.10
2023-03-26T23:17:37.503Z,5.00
2023-03-26T23:20:12.166Z,4.90
2023-03-26T23:22:38.842Z,5.00
2023-03-26T23:25:06.304Z,4.90
2023-03-26T23:27:33.049Z,4.90
2023-03-26T23:30:01.202Z,5.00
2023-03-26T23:32:28.050Z,5.00
2023-03-26T23:34:55.891Z,5.00
2023-03-26T23:37:23.824Z,4.90
2023-03-26T23:39:51.313Z,4.90
2023-03-26T23:42:28.844Z,4.90
2023-03-26T23:44:56.971Z,4.90
2023-03-26T23:47:23.921Z,4.80
2023-03-26T23:49:50.878Z,4.80
2023-03-26T23:52:17.883Z,4.80
2023-03-26T23:54:45.011Z,4.80
2023-03-26T23:57:11.863Z,4.70
2023-03-26T23:59:38.624Z,4.80
